Time;durP1;ratioP1;P1;durP2;ratioP2;P2;SDS_P1;SDS_P2;PMS_P1;PMS_P2;Temp;Humidity;BMP_temperature;BMP_pressure;BME280_temperature;BME280_humidity;BME280_pressure;Samples;Min_cycle;Max_cycle;Signal;HPM_P1;HPM_P2
2021/01/26 00:00:55;;;;;;;23.38;9.15;;;2.60;95.80;;;;;;5031467;28;20659;-85
2021/01/26 00:03:21;;;;;;;19.08;8.05;;;2.60;96.20;;;;;;5031905;28;20216;-85
2021/01/26 00:05:48;;;;;;;18.75;7.50;;;2.60;96.20;;;;;;5032359;28;20188;-86
2021/01/26 00:08:14;;;;;;;20.38;8.52;;;2.60;96.00;;;;;;5033033;28;20221;-85
2021/01/26 00:10:40;;;;;;;25.15;9.82;;;2.60;96.00;;;;;;5032433;28;20316;-85
2021/01/26 00:13:07;;;;;;;16.05;7.43;;;2.70;96.10;;;;;;5032172;28;20672;-86
2021/01/26 00:15:33;;;;;;;18.20;8.13;;;2.70;96.00;;;;;;5032428;28;20543;-85
2021/01/26 00:17:59;;;;;;;17.93;9.17;;;2.70;95.90;;;;;;5032886;28;20194;-85
2021/01/26 00:20:25;;;;;;;19.10;8.50;;;2.70;95.80;;;;;;5032815;28;20409;-85
2021/01/26 00:22:52;;;;;;;18.45;8.68;;;2.70;95.60;;;;;;5032463;28;20685;-85
2021/01/26 00:25:30;;;;;;;18.13;8.25;;;2.70;95.40;;;;;;5031908;28;20174;-85
2021/01/26 00:27:56;;;;;;;18.83;8.82;;;2.70;95.60;;;;;;5031820;28;20277;-85
2021/01/26 00:30:26;;;;;;;16.92;7.95;;;2.70;95.80;;;;;;5032152;28;20170;-85
2021/01/26 00:32:53;;;;;;;20.35;8.70;;;2.70;95.60;;;;;;5032049;28;20224;-84
2021/01/26 00:35:22;;;;;;;18.63;8.48;;;2.70;95.50;;;;;;5032518;28;20185;-85
2021/01/26 00:37:48;;;;;;;15.73;8.63;;;2.70;95.40;;;;;;5032116;28;20244;-85
2021/01/26 00:40:15;;;;;;;16.17;8.07;;;2.60;95.10;;;;;;5031432;28;20184;-85
2021/01/26 00:42:41;;;;;;;17.58;8.20;;;2.70;95.00;;;;;;5031940;28;20994;-85
2021/01/26 00:45:08;;;;;;;19.00;9.03;;;2.60;95.40;;;;;;5031878;28;20170;-85
2021/01/26 00:47:33;;;;;;;20.58;8.35;;;2.50;95.50;;;;;;5031375;28;20527;-85
2021/01/26 00:49:59;;;;;;;17.30;7.87;;;2.60;95.80;;;;;;5031461;28;20216;-86
2021/01/26 00:52:25;;;;;;;19.43;7.70;;;2.60;95.70;;;;;;5032029;28;20995;-85
2021/01/26 00:54:51;;;;;;;15.10;7.57;;;2.50;96.00;;;;;;5032121;28;20638;-85
2021/01/26 00:57:19;;;;;;;21.03;7.57;;;2.50;96.00;;;;;;5032591;28;20391;-85
2021/01/26 00:59:49;;;;;;;10.82;5.70;;;2.50;95.60;;;;;;5033076;28;20420;-86
2021/01/26 01:02:16;;;;;;;16.10;7.32;;;2.40;95.30;;;;;;5035520;28;20206;-85
2021/01/26 01:04:42;;;;;;;17.17;7.72;;;2.40;95.40;;;;;;5035335;28;20204;-85
2021/01/26 01:07:08;;;;;;;18.05;7.07;;;2.40;95.50;;;;;;5035457;28;20170;-85
2021/01/26 01:09:34;;;;;;;19.63;7.33;;;2.40;95.50;;;;;;5035092;28;20181;-85
2021/01/26 01:12:00;;;;;;;14.93;7.00;;;2.40;95.20;;;;;;5035526;28;20413;-85
2021/01/26 01:14:26;;;;;;;20.17;8.27;;;2.40;95.30;;;;;;5035897;28;20413;-85
2021/01/26 01:16:53;;;;;;;17.17;8.18;;;2.40;95.40;;;;;;5035644;28;20486;-83
2021/01/26 01:19:19;;;;;;;19.88;7.82;;;2.30;95.80;;;;;;5042995;28;20202;-83
2021/01/26 01:21:44;;;;;;;14.20;6.90;;;2.20;95.90;;;;;;5038194;28;20177;-83
2021/01/26 01:24:10;;;;;;;13.07;7.43;;;2.20;95.80;;;;;;5037930;28;20448;-83
2021/01/26 01:26:36;;;;;;;15.87;7.40;;;2.10;95.90;;;;;;5037634;28;20174;-83
2021/01/26 01:29:02;;;;;;;15.13;7.20;;;2.10;96.60;;;;;;5036856;28;20432;-83
2021/01/26 01:31:29;;;;;;;17.85;8.07;;;2.10;96.40;;;;;;5037262;28;20478;-83
2021/01/26 01:33:54;;;;;;;15.23;7.97;;;2.10;96.30;;;;;;5037354;28;20190;-83
2021/01/26 01:36:20;;;;;;;13.50;5.97;;;2.00;96.80;;;;;;5039711;28;20182;-82
2021/01/26 01:38:46;;;;;;;12.75;5.72;;;2.00;96.30;;;;;;5039243;28;20228;-82
2021/01/26 01:41:12;;;;;;;10.55;5.13;;;2.00;93.00;;;;;;5038408;28;20177;-82
2021/01/26 01:43:38;;;;;;;14.27;5.63;;;2.00;93.10;;;;;;5038953;28;20194;-82
2021/01/26 01:46:11;;;;;;;11.23;5.17;;;2.00;93.60;;;;;;5038274;28;20468;-82
2021/01/26 01:48:37;;;;;;;10.82;4.20;;;2.00;92.40;;;;;;5037820;28;20432;-82
2021/01/26 01:51:09;;;;;;;14.63;5.40;;;2.00;92.50;;;;;;5037931;28;20196;-82
2021/01/26 01:53:39;;;;;;;8.95;4.28;;;2.00;91.40;;;;;;5037861;28;20417;-82
2021/01/26 01:56:18;;;;;;;11.52;5.65;;;2.00;91.00;;;;;;5037184;28;20657;-82
2021/01/26 01:58:55;;;;;;;15.20;5.43;;;2.00;91.30;;;;;;5037425;28;20189;-82
2021/01/26 02:01:24;;;;;;;9.55;4.15;;;2.00;90.80;;;;;;5038517;28;20173;-83
2021/01/26 02:03:54;;;;;;;12.68;5.28;;;1.90;89.80;;;;;;5037224;28;20213;-82
2021/01/26 02:06:25;;;;;;;13.15;5.43;;;1.90;91.00;;;;;;5037963;28;20178;-83
2021/01/26 02:08:59;;;;;;;11.55;5.50;;;1.80;91.20;;;;;;5037179;28;20222;-82
2021/01/26 02:11:25;;;;;;;11.52;6.35;;;1.90;91.90;;;;;;5036356;28;20223;-83
2021/01/26 02:13:51;;;;;;;10.07;5.70;;;1.90;91.40;;;;;;5037702;28;20178;-83
2021/01/26 02:16:55;;;;;;;8.63;4.63;;;1.90;91.20;;;;;;5037447;28;20205;-83
2021/01/26 02:19:59;;;;;;;19.13;6.35;;;1.90;90.10;;;;;;5034930;28;20201;-83
2021/01/26 02:22:49;;;;;;;13.77;4.88;;;1.90;91.30;;;;;;5036442;28;20205;-83
2021/01/26 02:25:34;;;;;;;13.35;5.00;;;1.90;90.80;;;;;;5038179;28;20177;-82
2021/01/26 02:28:36;;;;;;;15.88;6.53;;;1.90;89.80;;;;;;5038247;28;20265;-82
2021/01/26 02:31:27;;;;;;;12.77;5.53;;;1.90;90.60;;;;;;5020388;28;20201;-83
2021/01/26 02:34:16;;;;;;;16.20;5.45;;;1.90;90.70;;;;;;5036509;28;20166;-82
2021/01/26 02:37:00;;;;;;;14.27;6.25;;;1.90;90.10;;;;;;5032172;28;20281;-83
2021/01/26 02:39:51;;;;;;;15.48;6.07;;;1.90;90.10;;;;;;5037134;28;20560;-83
2021/01/26 02:42:32;;;;;;;12.50;5.75;;;1.90;89.60;;;;;;5037307;28;20208;-83
2021/01/26 02:45:19;;;;;;;16.17;5.90;;;1.80;90.10;;;;;;5037407;28;20178;-83
2021/01/26 02:48:35;;;;;;;15.05;6.15;;;1.80;90.60;;;;;;5036683;28;20667;-82
2021/01/26 02:51:31;;;;;;;14.82;5.60;;;1.90;90.80;;;;;;4999833;28;20167;-83
2021/01/26 02:54:07;;;;;;;18.17;6.57;;;1.80;90.50;;;;;;5037161;28;20672;-83
2021/01/26 02:56:40;;;;;;;14.07;6.05;;;1.80;90.90;;;;;;5037250;28;20169;-82
2021/01/26 02:59:51;;;;;;;18.45;5.85;;;1.90;91.30;;;;;;5037288;28;20212;-82
2021/01/26 03:02:33;;;;;;;12.95;6.32;;;1.90;90.80;;;;;;5027661;28;20186;-82
2021/01/26 03:05:13;;;;;;;17.08;6.35;;;2.00;90.10;;;;;;5036756;28;20236;-82
2021/01/26 03:07:46;;;;;;;12.85;5.97;;;2.00;90.80;;;;;;5036715;28;20666;-82
2021/01/26 03:10:16;;;;;;;21.83;7.75;;;2.00;90.30;;;;;;5036105;28;20698;-82
2021/01/26 03:12:50;;;;;;;14.20;6.03;;;2.00;90.80;;;;;;5036546;28;20201;-82
2021/01/26 03:15:21;;;;;;;19.20;7.75;;;2.00;91.80;;;;;;5036347;28;20177;-83
2021/01/26 03:17:52;;;;;;;16.45;7.60;;;2.00;91.00;;;;;;5036488;28;20677;-83
2021/01/26 03:20:31;;;;;;;13.93;6.15;;;2.00;91.80;;;;;;5037100;28;20658;-82
2021/01/26 03:23:01;;;;;;;11.45;6.00;;;2.00;91.30;;;;;;5035489;28;20200;-82
2021/01/26 03:25:29;;;;;;;17.67;6.82;;;2.00;91.10;;;;;;5035683;28;20165;-82
2021/01/26 03:27:59;;;;;;;16.55;6.38;;;1.90;91.50;;;;;;5036508;28;20197;-82
2021/01/26 03:30:30;;;;;;;22.10;7.25;;;1.90;91.20;;;;;;5036493;28;20260;-82
2021/01/26 03:33:20;;;;;;;18.17;6.70;;;1.80;91.40;;;;;;5035972;28;20169;-83
2021/01/26 03:35:46;;;;;;;17.27;6.95;;;1.80;91.50;;;;;;5036005;28;20409;-82
2021/01/26 03:38:20;;;;;;;14.27;6.43;;;1.80;91.20;;;;;;5037164;28;20204;-82
2021/01/26 03:40:46;;;;;;;16.40;6.57;;;1.80;91.50;;;;;;5036740;28;20181;-82
2021/01/26 03:43:12;;;;;;;17.30;7.90;;;1.80;91.80;;;;;;5036806;28;20607;-82
2021/01/26 03:45:38;;;;;;;16.70;7.05;;;1.80;91.90;;;;;;5036880;28;20812;-83
2021/01/26 03:48:16;;;;;;;12.40;6.75;;;1.80;92.20;;;;;;5036891;28;20669;-82
2021/01/26 03:51:20;;;;;;;17.17;7.50;;;1.80;92.30;;;;;;5037596;28;20170;-82
2021/01/26 03:54:06;;;;;;;16.85;7.78;;;1.80;91.90;;;;;;5000344;28;20201;-82
2021/01/26 03:56:53;;;;;;;17.85;7.47;;;1.70;92.40;;;;;;5034875;28;20646;-82
2021/01/26 03:59:32;;;;;;;16.38;7.03;;;1.80;93.10;;;;;;5038170;28;20190;-82
2021/01/26 04:02:14;;;;;;;13.15;6.45;;;1.80;92.70;;;;;;5036333;28;20162;-81
2021/01/26 04:05:20;;;;;;;18.17;7.22;;;1.80;92.70;;;;;;5107062;22;20224;-79
2021/01/26 04:08:10;;;;;;;36.17;8.90;;;1.80;92.70;;;;;;5038268;28;20284;-79
2021/01/26 04:10:39;;;;;;;18.65;7.65;;;1.70;93.30;;;;;;5037989;28;20176;-79
2021/01/26 04:13:12;;;;;;;18.10;7.03;;;1.70;92.80;;;;;;5037661;28;20790;-79
2021/01/26 04:16:00;;;;;;;15.93;7.65;;;1.60;92.80;;;;;;5037880;28;20188;-79
2021/01/26 04:18:32;;;;;;;15.60;6.70;;;1.60;93.20;;;;;;5037361;28;20334;-79
2021/01/26 04:20:59;;;;;;;20.50;8.30;;;1.50;93.60;;;;;;5038080;28;20178;-82
2021/01/26 04:23:26;;;;;;;21.95;7.60;;;1.50;93.80;;;;;;5038068;28;20200;-82
2021/01/26 04:25:52;;;;;;;22.00;8.70;;;1.50;93.30;;;;;;5038493;28;20667;-82
2021/01/26 04:28:33;;;;;;;21.77;8.18;;;1.60;93.40;;;;;;5038450;28;20307;-82
2021/01/26 04:30:59;;;;;;;18.77;6.55;;;1.60;93.40;;;;;;5037932;28;20193;-79
2021/01/26 04:33:25;;;;;;;20.67;8.10;;;1.60;93.70;;;;;;5038426;28;20169;-81
2021/01/26 04:35:51;;;;;;;17.03;7.63;;;1.60;93.50;;;;;;5040498;28;20411;-81
2021/01/26 04:38:16;;;;;;;18.30;6.97;;;1.60;93.60;;;;;;5041164;28;20232;-82
2021/01/26 04:40:42;;;;;;;17.43;7.37;;;1.60;93.80;;;;;;5041692;28;20174;-82
2021/01/26 04:43:22;;;;;;;13.30;7.80;;;1.70;93.70;;;;;;5041771;28;20275;-82
2021/01/26 04:46:01;;;;;;;15.93;8.95;;;1.70;93.60;;;;;;5041928;28;20168;-81
2021/01/26 04:48:31;;;;;;;21.63;8.10;;;1.60;93.90;;;;;;5041854;28;20234;-81
2021/01/26 04:51:07;;;;;;;19.33;7.55;;;1.60;93.30;;;;;;5042285;28;20237;-82
2021/01/26 04:53:42;;;;;;;23.92;9.02;;;1.60;93.60;;;;;;5040718;28;20179;-81
2021/01/26 04:56:25;;;;;;;26.20;7.75;;;1.60;94.20;;;;;;5041437;28;20507;-81
2021/01/26 04:59:06;;;;;;;19.95;8.20;;;1.70;94.00;;;;;;5041032;28;20208;-82
2021/01/26 05:02:03;;;;;;;11.13;5.72;;;1.70;93.70;;;;;;5041789;28;20161;-82
2021/01/26 05:04:43;;;;;;;20.23;7.40;;;1.80;93.20;;;;;;5041663;28;20263;-82
2021/01/26 05:07:15;;;;;;;15.27;7.00;;;1.80;93.10;;;;;;5036187;28;20174;-82
2021/01/26 05:09:58;;;;;;;18.23;6.90;;;1.80;93.40;;;;;;5023228;28;20664;-82
2021/01/26 05:12:26;;;;;;;16.30;5.30;;;1.80;93.80;;;;;;5022082;28;20170;-82
2021/01/26 05:14:58;;;;;;;12.45;5.45;;;1.90;92.50;;;;;;5021605;28;20261;-82
2021/01/26 05:17:50;;;;;;;12.20;5.40;;;1.90;93.40;;;;;;5021203;28;20158;-82
2021/01/26 05:20:23;;;;;;;15.25;5.28;;;1.90;93.50;;;;;;5037023;28;20650;-82
2021/01/26 05:23:18;;;;;;;9.82;4.57;;;1.90;93.80;;;;;;5020980;28;20226;-79
2021/01/26 05:25:44;;;;;;;16.02;5.72;;;2.00;93.20;;;;;;5029108;28;20181;-81
2021/01/26 05:28:11;;;;;;;11.57;5.03;;;2.00;93.10;;;;;;5040082;28;20595;-81
2021/01/26 05:30:38;;;;;;;17.23;5.57;;;2.00;93.10;;;;;;5058104;28;20189;-82
2021/01/26 05:33:13;;;;;;;13.38;5.35;;;2.00;93.30;;;;;;5039851;28;20181;-81
2021/01/26 05:35:43;;;;;;;17.02;6.03;;;2.00;93.60;;;;;;5039183;28;20187;-81
2021/01/26 05:38:09;;;;;;;11.20;5.32;;;2.00;92.40;;;;;;5039901;28;20193;-82
2021/01/26 05:40:39;;;;;;;11.00;5.95;;;2.10;92.40;;;;;;5040421;28;20181;-82
2021/01/26 05:43:09;;;;;;;12.70;5.00;;;2.00;92.60;;;;;;5039841;28;20584;-82
2021/01/26 05:45:40;;;;;;;13.32;5.07;;;2.00;91.70;;;;;;5040264;28;20527;-82
2021/01/26 05:48:18;;;;;;;16.48;5.30;;;2.00;92.10;;;;;;5039468;28;20208;-81
2021/01/26 05:50:46;;;;;;;14.35;5.82;;;2.10;92.00;;;;;;5040083;28;20168;-81
2021/01/26 05:53:20;;;;;;;10.52;5.35;;;2.10;92.80;;;;;;5040399;28;20177;-82
2021/01/26 05:55:58;;;;;;;12.25;6.25;;;2.10;92.40;;;;;;5040685;28;20161;-82
2021/01/26 05:58:28;;;;;;;13.07;5.30;;;2.10;92.50;;;;;;5040503;28;20193;-82
2021/01/26 06:00:59;;;;;;;12.40;5.57;;;2.20;92.80;;;;;;5040554;28;20641;-82
2021/01/26 06:03:26;;;;;;;14.02;5.30;;;2.20;91.70;;;;;;5039536;28;20250;-82
2021/01/26 06:06:04;;;;;;;12.07;5.45;;;2.20;91.80;;;;;;5039520;28;20196;-82
2021/01/26 06:08:31;;;;;;;12.77;4.72;;;2.20;91.60;;;;;;5039879;28;20279;-82
2021/01/26 06:10:57;;;;;;;11.05;4.45;;;2.30;91.60;;;;;;5040607;28;20303;-83
2021/01/26 06:13:28;;;;;;;18.65;6.38;;;2.30;92.00;;;;;;5039834;28;20173;-82
2021/01/26 06:16:10;;;;;;;11.25;4.18;;;2.40;91.00;;;;;;5040123;28;20206;-82
2021/01/26 06:18:37;;;;;;;7.15;3.83;;;2.40;91.00;;;;;;5039766;28;20201;-82
2021/01/26 06:21:06;;;;;;;7.75;3.60;;;2.40;91.20;;;;;;5040177;28;20184;-82
2021/01/26 06:23:33;;;;;;;12.38;3.97;;;2.40;91.20;;;;;;5039451;28;20224;-82
2021/01/26 06:26:03;;;;;;;7.80;3.58;;;2.40;90.60;;;;;;5040173;28;20722;-82
2021/01/26 06:28:54;;;;;;;5.63;3.33;;;2.50;90.20;;;;;;5038954;28;20197;-82
2021/01/26 06:31:23;;;;;;;5.07;2.58;;;2.50;88.80;;;;;;5039607;28;20188;-82
2021/01/26 06:33:55;;;;;;;7.45;2.83;;;2.40;89.40;;;;;;5039802;28;20569;-82
2021/01/26 06:36:48;;;;;;;5.82;2.92;;;2.40;91.20;;;;;;5039761;28;20173;-82
2021/01/26 06:39:50;;;;;;;7.43;3.28;;;2.50;90.40;;;;;;5040174;28;20220;-82
2021/01/26 06:42:28;;;;;;;5.13;3.40;;;2.50;89.80;;;;;;5038702;28;20161;-82
2021/01/26 06:45:23;;;;;;;8.32;4.15;;;2.50;90.10;;;;;;5039158;28;20172;-82
2021/01/26 06:47:58;;;;;;;8.30;3.70;;;2.40;90.40;;;;;;5039549;28;20221;-82
2021/01/26 06:50:45;;;;;;;7.38;3.30;;;2.50;91.10;;;;;;5057404;28;20160;-82
2021/01/26 06:53:26;;;;;;;6.50;2.55;;;2.50;91.80;;;;;;5039197;28;20165;-82
2021/01/26 06:56:13;;;;;;;8.43;3.28;;;2.50;92.40;;;;;;5038870;28;20207;-82
2021/01/26 06:59:20;;;;;;;5.80;3.40;;;2.50;92.60;;;;;;5039148;28;20561;-82
2021/01/26 07:02:23;;;;;;;6.70;3.50;;;2.60;92.20;;;;;;5038712;28;20188;-82
2021/01/26 07:05:22;;;;;;;10.32;3.20;;;2.60;92.80;;;;;;5038208;28;20220;-82
2021/01/26 07:08:00;;;;;;;6.28;3.17;;;2.60;91.60;;;;;;5037902;28;20261;-82
2021/01/26 07:11:00;;;;;;;10.05;3.28;;;2.60;92.70;;;;;;5037982;28;20514;-82
2021/01/26 07:13:35;;;;;;;9.82;4.10;;;2.60;92.70;;;;;;5037899;28;20212;-82
2021/01/26 07:16:38;;;;;;;11.60;3.85;;;2.70;92.70;;;;;;5037824;28;20191;-82
2021/01/26 07:19:15;;;;;;;7.30;3.67;;;2.80;92.50;;;;;;5037948;28;20189;-82
2021/01/26 07:22:02;;;;;;;6.90;3.10;;;2.90;92.70;;;;;;5038390;28;20259;-82
2021/01/26 07:25:02;;;;;;;6.38;2.78;;;2.90;91.90;;;;;;5037871;28;20205;-80
2021/01/26 07:28:02;;;;;;;11.50;2.95;;;2.90;91.40;;;;;;5037933;28;20622;-82
2021/01/26 07:30:38;;;;;;;12.80;3.10;;;2.80;90.80;;;;;;5038289;28;20224;-82
2021/01/26 07:33:18;;;;;;;4.38;2.67;;;2.70;91.30;;;;;;5037983;28;20173;-82
2021/01/26 07:36:23;;;;;;;9.18;3.65;;;2.70;92.40;;;;;;5037395;28;20172;-82
2021/01/26 07:38:57;;;;;;;8.85;3.88;;;2.80;93.10;;;;;;5003094;28;20215;-82
2021/01/26 07:41:32;;;;;;;13.15;3.97;;;2.80;93.40;;;;;;5037050;28;20527;-82
2021/01/26 07:44:16;;;;;;;8.75;3.45;;;2.80;94.00;;;;;;5036769;28;20201;-82
2021/01/26 07:47:08;;;;;;;7.70;3.58;;;2.80;94.20;;;;;;5036505;28;20169;-82
2021/01/26 07:50:01;;;;;;;9.63;3.15;;;2.90;94.10;;;;;;5037103;28;20810;-82
2021/01/26 07:52:29;;;;;;;8.35;3.55;;;2.90;94.20;;;;;;5036663;28;20210;-82
2021/01/26 07:55:21;;;;;;;8.80;3.55;;;3.00;94.20;;;;;;5036953;28;20572;-82
2021/01/26 07:57:57;;;;;;;9.80;4.25;;;3.00;94.20;;;;;;5036770;28;20235;-82
2021/01/26 08:00:28;;;;;;;10.63;3.35;;;3.00;94.30;;;;;;5036774;28;20160;-82
2021/01/26 08:02:56;;;;;;;10.18;4.10;;;3.00;94.10;;;;;;5036975;28;20208;-82
2021/01/26 08:05:46;;;;;;;6.40;2.92;;;3.00;93.60;;;;;;5037059;28;20185;-82
2021/01/26 08:08:27;;;;;;;9.98;2.80;;;2.90;93.70;;;;;;5036577;28;20703;-82
2021/01/26 08:11:10;;;;;;;18.80;4.38;;;2.80;92.80;;;;;;5039393;28;20170;-82
2021/01/26 08:13:43;;;;;;;6.85;3.80;;;2.90;93.70;;;;;;5040806;28;20169;-81
2021/01/26 08:16:13;;;;;;;5.20;2.38;;;2.90;93.50;;;;;;5041422;28;20628;-82
2021/01/26 08:18:40;;;;;;;5.13;2.53;;;2.80;92.10;;;;;;5041255;28;20680;-82
2021/01/26 08:21:26;;;;;;;4.05;1.85;;;2.90;91.10;;;;;;5041478;28;20569;-82
2021/01/26 08:24:15;;;;;;;10.38;3.15;;;2.90;91.40;;;;;;5041266;28;20197;-81
2021/01/26 08:26:42;;;;;;;9.30;2.45;;;2.90;91.50;;;;;;5040674;28;20165;-82
2021/01/26 08:29:08;;;;;;;3.70;2.00;;;2.90;91.30;;;;;;5040149;28;20186;-82
2021/01/26 08:31:36;;;;;;;7.28;3.00;;;2.90;91.20;;;;;;5040949;28;20181;-82
2021/01/26 08:34:21;;;;;;;5.00;2.35;;;2.90;91.20;;;;;;5040338;28;20204;-81
2021/01/26 08:37:07;;;;;;;4.50;2.85;;;2.90;90.60;;;;;;5040742;28;20228;-81
2021/01/26 08:39:46;;;;;;;6.75;2.85;;;2.90;90.30;;;;;;5040258;28;20671;-82
2021/01/26 08:42:41;;;;;;;7.82;3.00;;;3.00;89.90;;;;;;5040437;28;20177;-82
2021/01/26 08:45:07;;;;;;;7.93;3.50;;;3.00;90.30;;;;;;5041385;28;20181;-82
2021/01/26 08:47:41;;;;;;;15.30;3.55;;;3.00;89.80;;;;;;5040332;28;20189;-82
2021/01/26 08:50:32;;;;;;;9.10;4.07;;;3.00;89.50;;;;;;5041140;28;20169;-81
2021/01/26 08:53:26;;;;;;;11.18;4.38;;;3.00;90.10;;;;;;5040625;28;20197;-82
2021/01/26 08:55:54;;;;;;;9.13;3.92;;;2.90;90.40;;;;;;5040753;28;20195;-81
2021/01/26 08:58:43;;;;;;;15.02;5.03;;;2.90;90.30;;;;;;5040347;28;20196;-81
2021/01/26 09:01:30;;;;;;;10.38;3.47;;;2.90;90.80;;;;;;5040286;28;20239;-82
2021/01/26 09:04:18;;;;;;;9.60;2.88;;;2.90;91.00;;;;;;5040010;28;20200;-81
2021/01/26 09:06:48;;;;;;;9.77;3.85;;;3.00;90.80;;;;;;5040559;28;20235;-81
2021/01/26 09:09:23;;;;;;;7.63;4.35;;;2.90;90.10;;;;;;5040879;28;20303;-81
2021/01/26 09:11:55;;;;;;;16.58;4.10;;;2.90;89.80;;;;;;5059204;28;20176;-82
2021/01/26 09:14:45;;;;;;;11.98;4.70;;;3.00;89.60;;;;;;5040731;28;20157;-81
2021/01/26 09:17:20;;;;;;;9.25;4.30;;;2.90;89.90;;;;;;5040586;28;20287;-81
2021/01/26 09:19:50;;;;;;;9.05;3.78;;;3.00;88.90;;;;;;5040532;28;20226;-81
2021/01/26 09:22:32;;;;;;;7.32;3.30;;;2.90;88.80;;;;;;5040609;28;20264;-82
2021/01/26 09:25:13;;;;;;;11.25;3.78;;;2.90;88.10;;;;;;5040790;28;20174;-82
2021/01/26 09:27:39;;;;;;;6.63;3.30;;;2.90;88.70;;;;;;5040169;28;20213;-81
2021/01/26 09:30:09;;;;;;;8.68;3.00;;;2.90;88.90;;;;;;5040432;28;20177;-82
2021/01/26 09:32:36;;;;;;;10.25;3.22;;;3.00;88.40;;;;;;5040333;28;20207;-82
2021/01/26 09:35:22;;;;;;;4.75;2.85;;;3.00;88.30;;;;;;5040650;28;20199;-82
2021/01/26 09:38:18;;;;;;;8.07;2.80;;;3.00;87.10;;;;;;5039917;28;20203;-81
2021/01/26 09:40:55;;;;;;;8.45;3.72;;;3.00;87.60;;;;;;5041071;28;20184;-78
2021/01/26 09:43:31;;;;;;;7.15;2.83;;;3.10;85.80;;;;;;5044997;28;20287;-79
2021/01/26 09:46:01;;;;;;;14.18;3.03;;;3.30;86.00;;;;;;5047955;28;20219;-79
2021/01/26 09:48:33;;;;;;;6.32;3.13;;;3.50;87.40;;;;;;5044257;28;20602;-83
2021/01/26 09:51:10;;;;;;;10.52;2.22;;;3.60;84.90;;;;;;5024388;28;20180;-79
2021/01/26 09:53:37;;;;;;;9.55;2.97;;;3.70;83.00;;;;;;5040077;28;20543;-80
2021/01/26 09:56:05;;;;;;;10.20;2.55;;;3.80;83.50;;;;;;5040038;28;20173;-79
2021/01/26 09:58:31;;;;;;;6.35;2.78;;;3.80;83.10;;;;;;5040263;28;20204;-79
2021/01/26 10:00:59;;;;;;;8.40;2.80;;;3.80;82.60;;;;;;5042083;28;20276;-80
2021/01/26 10:03:26;;;;;;;6.90;2.83;;;3.70;83.30;;;;;;5041779;28;20600;-80
2021/01/26 10:05:56;;;;;;;4.68;2.03;;;3.70;83.30;;;;;;5042655;28;20654;-80
2021/01/26 10:08:28;;;;;;;5.25;2.70;;;3.60;83.40;;;;;;5042922;28;20196;-81
2021/01/26 10:10:55;;;;;;;12.15;2.80;;;3.60;83.50;;;;;;5041434;28;20165;-82
2021/01/26 10:13:32;;;;;;;7.15;2.50;;;3.60;83.00;;;;;;5040955;28;20264;-81
2021/01/26 10:16:39;;;;;;;4.53;2.30;;;3.60;83.10;;;;;;5059879;28;20683;-81
2021/01/26 10:19:12;;;;;;;3.90;2.20;;;3.70;82.40;;;;;;5041459;28;20327;-82
2021/01/26 10:21:39;;;;;;;5.88;2.20;;;3.70;81.70;;;;;;5040980;28;20165;-81
2021/01/26 10:24:08;;;;;;;4.53;2.17;;;3.90;81.90;;;;;;5040867;28;20290;-81
2021/01/26 10:26:42;;;;;;;4.68;2.17;;;4.00;81.70;;;;;;5040482;28;20196;-81
2021/01/26 10:29:10;;;;;;;3.97;2.00;;;4.00;79.80;;;;;;5040853;28;20707;-82
2021/01/26 10:31:55;;;;;;;3.90;1.70;;;4.10;80.10;;;;;;5044966;28;20192;-79
2021/01/26 10:34:36;;;;;;;7.15;2.53;;;4.20;79.90;;;;;;5045317;28;20184;-79
2021/01/26 10:37:07;;;;;;;4.50;2.70;;;4.30;80.90;;;;;;5046707;28;20165;-78
2021/01/26 10:39:33;;;;;;;9.50;2.65;;;4.40;79.90;;;;;;5046362;28;20169;-78
2021/01/26 10:42:04;;;;;;;3.90;1.77;;;4.50;80.30;;;;;;5045712;28;20198;-79
2021/01/26 10:44:30;;;;;;;2.95;1.90;;;4.50;77.80;;;;;;5044740;28;20197;-79
2021/01/26 10:46:56;;;;;;;6.20;2.95;;;4.40;78.70;;;;;;5045389;28;20621;-79
2021/01/26 10:49:30;;;;;;;3.20;2.00;;;4.30;78.90;;;;;;5044712;28;20584;-79
2021/01/26 10:52:04;;;;;;;2.90;1.95;;;4.10;78.00;;;;;;5045131;28;20157;-79
2021/01/26 10:54:30;;;;;;;8.82;2.42;;;4.00;78.80;;;;;;5045008;28;20187;-79
2021/01/26 10:56:56;;;;;;;5.50;1.97;;;3.90;80.20;;;;;;5044515;28;20659;-79
2021/01/26 10:59:21;;;;;;;4.27;2.00;;;3.80;80.10;;;;;;5044726;28;20431;-79
2021/01/26 11:01:48;;;;;;;5.50;1.90;;;3.90;79.90;;;;;;5044425;28;20173;-78
2021/01/26 11:04:16;;;;;;;7.13;2.28;;;3.80;79.10;;;;;;5046548;28;20482;-78
2021/01/26 11:06:41;;;;;;;5.28;2.20;;;3.80;78.50;;;;;;5045176;28;20193;-79
2021/01/26 11:09:09;;;;;;;14.73;2.30;;;3.80;79.10;;;;;;5044524;28;20259;-79
2021/01/26 11:11:36;;;;;;;3.85;2.25;;;3.80;79.80;;;;;;5063939;28;20169;-78
2021/01/26 11:14:05;;;;;;;4.68;1.95;;;3.70;79.90;;;;;;5045742;28;20173;-79
2021/01/26 11:16:31;;;;;;;4.28;2.22;;;3.70;79.50;;;;;;5045731;28;20264;-79
2021/01/26 11:18:59;;;;;;;3.95;2.58;;;3.70;79.40;;;;;;5044358;28;20704;-82
2021/01/26 11:21:26;;;;;;;3.10;1.90;;;3.70;79.50;;;;;;5038111;28;20645;-83
2021/01/26 11:23:53;;;;;;;6.63;2.60;;;3.70;80.30;;;;;;5038333;28;20263;-80
2021/01/26 11:26:20;;;;;;;5.18;1.95;;;3.70;79.40;;;;;;5038256;28;20195;-81
2021/01/26 11:28:47;;;;;;;6.40;2.15;;;3.80;81.00;;;;;;5037853;28;20219;-81
2021/01/26 11:31:14;;;;;;;6.13;2.50;;;3.80;79.90;;;;;;5037891;28;20169;-80
2021/01/26 11:33:40;;;;;;;7.10;2.35;;;3.90;79.50;;;;;;5037860;28;20538;-80
2021/01/26 11:36:07;;;;;;;5.75;2.42;;;3.90;79.20;;;;;;5037446;28;20177;-81
2021/01/26 11:38:34;;;;;;;7.30;2.45;;;3.90;78.70;;;;;;5036999;28;20287;-80
2021/01/26 11:41:04;;;;;;;3.30;1.52;;;3.90;79.20;;;;;;5037595;28;20173;-79
2021/01/26 11:43:31;;;;;;;5.05;2.10;;;4.00;78.50;;;;;;5048280;28;20209;-79
2021/01/26 11:45:57;;;;;;;5.97;2.55;;;4.00;77.00;;;;;;5046732;28;20208;-79
2021/01/26 11:48:24;;;;;;;6.80;2.60;;;4.10;77.10;;;;;;5039766;28;20217;-80
2021/01/26 11:50:50;;;;;;;3.75;1.98;;;4.10;77.10;;;;;;5036730;28;20390;-80
2021/01/26 11:53:17;;;;;;;3.10;2.43;;;4.20;76.00;;;;;;5037655;28;20177;-80
2021/01/26 11:55:44;;;;;;;9.10;1.77;;;4.20;75.90;;;;;;5037835;28;20993;-80
2021/01/26 11:58:11;;;;;;;8.57;2.60;;;4.20;76.00;;;;;;5037803;28;20286;-81
2021/01/26 12:00:37;;;;;;;9.38;2.10;;;4.30;75.50;;;;;;5037529;28;20180;-81
2021/01/26 12:03:04;;;;;;;7.80;2.10;;;4.30;74.40;;;;;;5037015;28;20197;-81
2021/01/26 12:05:33;;;;;;;4.80;1.75;;;4.30;73.70;;;;;;5037889;28;20186;-80
2021/01/26 12:08:00;;;;;;;3.97;1.95;;;4.30;73.90;;;;;;5037762;28;20223;-81
2021/01/26 12:10:25;;;;;;;3.67;1.88;;;4.40;75.30;;;;;;5037931;28;20235;-81
2021/01/26 12:12:52;;;;;;;7.13;2.83;;;4.60;73.10;;;;;;5037510;28;20517;-81
2021/01/26 12:15:24;;;;;;;5.38;2.20;;;4.70;72.60;;;;;;5037740;28;20419;-81
2021/01/26 12:17:50;;;;;;;9.40;2.67;;;4.60;71.90;;;;;;5037094;28;20196;-81
2021/01/26 12:20:16;;;;;;;34.47;3.73;;;4.60;72.60;;;;;;5037528;28;20649;-81
2021/01/26 12:22:41;;;;;;;5.80;2.30;;;4.60;72.60;;;;;;5036807;28;20176;-81
2021/01/26 12:25:09;;;;;;;7.43;2.63;;;4.70;72.30;;;;;;5036733;28;20173;-82
2021/01/26 12:27:35;;;;;;;5.50;2.13;;;4.80;71.90;;;;;;5037650;28;20193;-81
2021/01/26 12:30:01;;;;;;;7.57;2.75;;;4.90;72.40;;;;;;5037859;28;20510;-81
2021/01/26 12:32:27;;;;;;;8.63;2.20;;;4.90;71.70;;;;;;5038202;28;20170;-81
2021/01/26 12:34:53;;;;;;;7.95;2.53;;;4.90;71.30;;;;;;5038008;28;20233;-81
2021/01/26 12:37:19;;;;;;;5.37;2.40;;;4.90;71.20;;;;;;5037421;28;20177;-81
2021/01/26 12:39:46;;;;;;;4.50;2.00;;;4.90;70.10;;;;;;5038798;28;20431;-81
2021/01/26 12:42:12;;;;;;;6.40;2.28;;;4.80;71.00;;;;;;5037792;28;20169;-81
2021/01/26 12:44:37;;;;;;;3.40;1.92;;;4.70;72.30;;;;;;5037600;28;20208;-81
2021/01/26 12:47:03;;;;;;;6.43;2.57;;;4.80;71.60;;;;;;5037747;28;20516;-81
2021/01/26 12:49:29;;;;;;;12.97;2.33;;;4.80;70.60;;;;;;5037408;28;20441;-81
2021/01/26 12:51:55;;;;;;;3.63;1.97;;;4.70;72.80;;;;;;5037222;28;20408;-81
2021/01/26 12:54:21;;;;;;;10.20;2.97;;;4.80;71.70;;;;;;5037085;28;20958;-81
2021/01/26 12:56:47;;;;;;;6.15;2.35;;;4.80;70.90;;;;;;5039399;28;20197;-81
2021/01/26 12:59:14;;;;;;;9.55;4.10;;;4.80;70.90;;;;;;5040751;28;20193;-81
2021/01/26 13:01:40;;;;;;;6.35;2.20;;;4.80;69.90;;;;;;5040455;28;20200;-81
2021/01/26 13:04:06;;;;;;;14.70;3.05;;;4.80;71.20;;;;;;5040275;28;20203;-81
2021/01/26 13:06:31;;;;;;;5.77;2.27;;;4.90;70.60;;;;;;5040734;28;20189;-81
2021/01/26 13:08:57;;;;;;;12.23;3.30;;;4.90;70.60;;;;;;5041604;28;20197;-81
2021/01/26 13:11:24;;;;;;;9.95;2.10;;;5.00;72.10;;;;;;5040547;28;20165;-81
2021/01/26 13:13:50;;;;;;;8.60;3.70;;;5.10;71.30;;;;;;5041008;28;20173;-81
2021/01/26 13:16:16;;;;;;;7.23;2.77;;;5.10;70.90;;;;;;5041349;28;20173;-81
2021/01/26 13:18:44;;;;;;;4.25;1.88;;;5.20;71.90;;;;;;5041765;28;20440;-81
2021/01/26 13:21:10;;;;;;;5.82;2.63;;;5.20;70.30;;;;;;5041936;28;20498;-81
2021/01/26 13:23:35;;;;;;;6.53;2.10;;;5.30;72.00;;;;;;5041665;28;20204;-81
2021/01/26 13:26:01;;;;;;;31.17;2.50;;;5.30;70.80;;;;;;5042287;28;20404;-81